Maersk Vallvik — 9V8839 — position and weather

sailwx.info

Track history (hours):
 
Tides and Currents Weather Stations Pressure Air Temp Water Temp Dewpoint Dewpoint Depression Visibility Wind Speed Wind Dir Waves Ship Positions

Maersk Vallvik

Last reported at 2016-May-14 03:27 UTC. Time now 2016-May-29 11:33 UTC.
Position S 33°39' E 018°08'.
Warning: this ship's position is 15 days out of date.

Length 180 m; draft 8.9 m.

Type: Ship (hazmat cat A). MMSI: 564837000.

Date/timePositionNaut miles runAvg speedWind from/ knotsBaromVisibWave heightAir tempDewpointWater temp
2016-May-14 03:27S 33°39' E 018°08'1213.4
2016-May-14 02:33S 33°48' E 018°18'9 9.5
2016-May-14 01:34S 33°55' E 018°26'0 0.1
2016-May-14 00:33S 33°55' E 018°26'0 0.0
2016-May-13 23:33S 33°55' E 018°26'0 0.0
2016-May-13 22:33S 33°55' E 018°26'0 0.0
2016-May-13 21:33S 33°55' E 018°26'0 0.0
2016-May-13 20:33S 33°55' E 018°26'0 0.0
2016-May-13 19:33S 33°55' E 018°26'0 0.0
2016-May-13 18:33S 33°55' E 018°26'0 0.0
2016-May-13 17:33S 33°55' E 018°26'0 0.0
2016-May-13 16:33S 33°55' E 018°26'0 0.0
2016-May-13 15:33S 33°55' E 018°26'0 0.0
2016-May-13 14:33S 33°55' E 018°26'0 0.0
2016-May-13 13:33S 33°55' E 018°26'0 0.0
2016-May-13 12:33S 33°55' E 018°26'0 0.0
2016-May-13 11:33S 33°55' E 018°26'0 0.0
2016-May-13 10:33S 33°55' E 018°26'0 0.0
2016-May-13 09:33S 33°55' E 018°26'0 0.0
2016-May-13 08:33S 33°55' E 018°26'0 0.0
2016-May-13 07:33S 33°55' E 018°26'0 0.0
2016-May-13 06:33S 33°55' E 018°26'3 2.8
2016-May-13 05:33S 33°52' E 018°24'7 6.9
2016-May-13 04:33S 33°52' E 018°15'10 9.4
2016-May-13 03:30S 33°53' E 018°03'2 1.8
2016-May-13 02:31S 33°54' E 018°01'1 0.5
2016-May-13 01:19S 33°53' E 018°01'0 0.4
2016-May-13 00:28S 33°53' E 018°01'1 0.4
2016-May-12 22:31S 33°52' E 018°00'1 0.5
2016-May-12 20:31S 33°51' E 017°60'2 0.7
2016-May-12 17:31S 33°50' E 017°58'5 2.6
2016-May-12 15:30S 33°51' E 018°04'4 0.9
2016-May-12 11:09S 33°50' E 017°59'0 0.2
2016-May-12 10:33S 33°50' E 017°59'4 4.4
2016-May-12 09:33S 33°53' E 018°03'3 2.9
2016-May-12 08:33S 33°55' E 018°05'14 9.8
2016-May-12 07:06S 34°09' E 018°11'810.0
2016-May-12 06:18S 34°16' E 018°13'5010.0
2016-May-12 01:19S 34°42' E 019°06'  
2016-May-09 12:19S 30°28' E 030°47'911.4
2016-May-09 11:33S 30°20' E 030°53'1111.0
2016-May-09 10:33S 30°11' E 030°59'1110.6
2016-May-09 09:33S 30°02' E 031°06'1110.7
2016-May-09 08:33S 29°53' E 031°12'8 7.7
2016-May-09 07:33S 29°52' E 031°03'1 1.3
2016-May-09 06:32S 29°53' E 031°02'0 0.0
2016-May-09 05:29S 29°53' E 031°02'0 0.0
2016-May-09 04:32S 29°53' E 031°02'0 0.0
2016-May-09 03:32S 29°53' E 031°02'0 0.0
2016-May-09 02:29S 29°53' E 031°02'0 0.0
2016-May-09 00:32S 29°53' E 031°02'0 0.0
2016-May-08 23:32S 29°53' E 031°02'0 0.0
2016-May-08 22:32S 29°53' E 031°02'0 0.0
2016-May-08 21:29S 29°53' E 031°02'0 0.0
2016-May-08 20:32S 29°53' E 031°02'0 0.0
2016-May-08 19:32S 29°53' E 031°02'0 0.0
2016-May-08 18:32S 29°53' E 031°02'0 0.0
2016-May-08 17:32S 29°53' E 031°02'0 0.0
2016-May-08 16:32S 29°53' E 031°02'0 0.0
2016-May-08 15:29S 29°53' E 031°02'0 0.0
2016-May-08 14:32S 29°53' E 031°02'0 0.0
2016-May-08 13:33S 29°53' E 031°02'0 0.0
2016-May-08 12:33S 29°53' E 031°02'0 0.0
2016-May-08 11:33S 29°53' E 031°02'0 0.0
2016-May-08 10:33S 29°53' E 031°02'0 0.0
2016-May-08 09:33S 29°53' E 031°02'0 0.0
2016-May-08 08:33S 29°53' E 031°02'0 0.0
2016-May-08 07:33S 29°53' E 031°02'0 0.0
2016-May-08 06:33S 29°53' E 031°02'0 0.0
2016-May-08 05:33S 29°53' E 031°02'0 0.0
2016-May-08 04:33S 29°53' E 031°02'0 0.0
2016-May-08 03:33S 29°53' E 031°02'0 0.0
2016-May-08 02:33S 29°53' E 031°02'0 0.0
2016-May-08 00:33S 29°53' E 031°02'0 0.0
2016-May-07 23:33S 29°53' E 031°02'0 0.0
2016-May-07 22:33S 29°53' E 031°02'0 0.1
2016-May-07 21:33S 29°53' E 031°02'5 4.9
2016-May-07 20:33S 29°49' E 031°05'4 3.5
2016-May-07 19:33S 29°46' E 031°08'1 0.5
2016-May-07 18:28S 29°46' E 031°09'0 0.1
2016-May-07 17:31S 29°46' E 031°09'0 0.0
2016-May-07 16:31S 29°46' E 031°09'0 0.1
2016-May-07 15:31S 29°46' E 031°09'0 0.0
2016-May-07 14:28S 29°46' E 031°09'0 0.0
2016-May-07 13:28S 29°46' E 031°09'0 0.0
2016-May-07 12:31S 29°46' E 031°09'0 0.0
2016-May-07 11:28S 29°46' E 031°09'0 0.0
2016-May-07 10:28S 29°46' E 031°09'0 0.0
2016-May-07 09:28S 29°46' E 031°09'0 0.0
2016-May-07 08:28S 29°46' E 031°09'0 0.0
2016-May-07 07:28S 29°46' E 031°09'0 0.0
2016-May-07 06:31S 29°46' E 031°09'0 0.0
2016-May-07 05:31S 29°46' E 031°09'0 0.0
2016-May-07 04:31S 29°46' E 031°09'0 0.0
2016-May-07 03:31S 29°46' E 031°09'0 0.1
2016-May-07 02:31S 29°46' E 031°09'0 0.0
2016-May-07 00:31S 29°46' E 031°09'0 0.1
2016-May-06 23:31S 29°46' E 031°09'0 0.0
2016-May-06 22:31S 29°46' E 031°09'0 0.0
2016-May-06 21:28S 29°46' E 031°09'0 0.1
2016-May-06 20:28S 29°46' E 031°09'0 0.0
2016-May-06 19:31S 29°46' E 031°09'0 0.0
2016-May-06 18:31S 29°46' E 031°09'0 0.0
2016-May-06 17:31S 29°46' E 031°09'0 0.0
2016-May-06 16:28S 29°46' E 031°09'0 0.0
2016-May-06 15:28S 29°46' E 031°09'0 0.0
2016-May-06 14:28S 29°46' E 031°09'0 0.0
2016-May-06 13:28S 29°46' E 031°09'0 0.0
2016-May-06 12:28S 29°46' E 031°09'0 0.0
2016-May-06 11:28S 29°46' E 031°09'0 0.0
2016-May-06 10:28S 29°46' E 031°09'0 0.0
2016-May-06 09:22S 29°46' E 031°09'0 0.0
2016-May-06 08:28S 29°46' E 031°09'0 0.0
2016-May-06 07:28S 29°46' E 031°09'0 0.0
2016-May-06 06:31S 29°46' E 031°09'0 0.0
2016-May-06 05:31S 29°46' E 031°09'0 0.0
2016-May-06 04:31S 29°46' E 031°09'0 0.0
2016-May-06 03:31S 29°46' E 031°09'0 0.0
2016-May-06 02:28S 29°46' E 031°09'0 0.0
2016-May-06 00:28S 29°46' E 031°09'0 0.1
2016-May-05 23:28S 29°46' E 031°09'0 0.0
2016-May-05 22:28S 29°46' E 031°09'0 0.0
2016-May-05 21:31S 29°46' E 031°09'0 0.0
2016-May-05 20:31S 29°46' E 031°09'0 0.0
2016-May-05 19:31S 29°46' E 031°09'0 0.0
2016-May-05 18:31S 29°46' E 031°09'0 0.0
2016-May-05 17:31S 29°46' E 031°09'0 0.0
2016-May-05 16:31S 29°46' E 031°09'0 0.0
2016-May-05 15:31S 29°46' E 031°09'0 0.0
2016-May-05 14:28S 29°46' E 031°09'0 0.0
2016-May-05 13:28S 29°46' E 031°09'0 0.0
2016-May-05 12:28S 29°46' E 031°09'0 0.0
2016-May-05 11:31S 29°46' E 031°09'1 0.7
2016-May-05 10:33S 29°47' E 031°09'9 8.9
2016-May-05 09:33S 29°56' E 031°10'1110.9
2016-May-05 08:33S 30°05' E 031°03'1110.8
2016-May-05 07:33S 30°14' E 030°57'1010.4
2016-May-05 06:33S 30°23' E 030°51'1010.3
2016-May-05 05:33S 30°32' E 030°44'  
Track history (hours):
 
Tides and Currents Weather Stations Pressure Air Temp Water Temp Dewpoint Dewpoint Depression Visibility Wind Speed Wind Dir Waves Ship Positions

Maersk Vallvik

Last reported at 2016-May-14 03:27 UTC. Time now 2016-May-29 11:33 UTC.
Position S 33°39' E 018°08'.
Warning: this ship's position is 15 days out of date.

Length 180 m; draft 8.9 m.

Type: Ship (hazmat cat A). MMSI: 564837000.

Date/timePositionNaut miles runAvg speedWind from/ knotsBaromVisibWave heightAir tempDewpointWater temp
2016-May-14 03:27S 33°39' E 018°08'1213.4
2016-May-14 02:33S 33°48' E 018°18'9 9.5
2016-May-14 01:34S 33°55' E 018°26'0 0.1
2016-May-14 00:33S 33°55' E 018°26'0 0.0
2016-May-13 23:33S 33°55' E 018°26'0 0.0
2016-May-13 22:33S 33°55' E 018°26'0 0.0
2016-May-13 21:33S 33°55' E 018°26'0 0.0
2016-May-13 20:33S 33°55' E 018°26'0 0.0
2016-May-13 19:33S 33°55' E 018°26'0 0.0
2016-May-13 18:33S 33°55' E 018°26'0 0.0
2016-May-13 17:33S 33°55' E 018°26'0 0.0
2016-May-13 16:33S 33°55' E 018°26'0 0.0
2016-May-13 15:33S 33°55' E 018°26'0 0.0
2016-May-13 14:33S 33°55' E 018°26'0 0.0
2016-May-13 13:33S 33°55' E 018°26'0 0.0
2016-May-13 12:33S 33°55' E 018°26'0 0.0
2016-May-13 11:33S 33°55' E 018°26'0 0.0
2016-May-13 10:33S 33°55' E 018°26'0 0.0
2016-May-13 09:33S 33°55' E 018°26'0 0.0
2016-May-13 08:33S 33°55' E 018°26'0 0.0
2016-May-13 07:33S 33°55' E 018°26'0 0.0
2016-May-13 06:33S 33°55' E 018°26'3 2.8
2016-May-13 05:33S 33°52' E 018°24'7 6.9
2016-May-13 04:33S 33°52' E 018°15'10 9.4
2016-May-13 03:30S 33°53' E 018°03'2 1.8
2016-May-13 02:31S 33°54' E 018°01'1 0.5
2016-May-13 01:19S 33°53' E 018°01'0 0.4
2016-May-13 00:28S 33°53' E 018°01'1 0.4
2016-May-12 22:31S 33°52' E 018°00'1 0.5
2016-May-12 20:31S 33°51' E 017°60'2 0.7
2016-May-12 17:31S 33°50' E 017°58'5 2.6
2016-May-12 15:30S 33°51' E 018°04'4 0.9
2016-May-12 11:09S 33°50' E 017°59'0 0.2
2016-May-12 10:33S 33°50' E 017°59'4 4.4
2016-May-12 09:33S 33°53' E 018°03'3 2.9
2016-May-12 08:33S 33°55' E 018°05'14 9.8
2016-May-12 07:06S 34°09' E 018°11'810.0
2016-May-12 06:18S 34°16' E 018°13'5010.0
2016-May-12 01:19S 34°42' E 019°06'  
2016-May-09 12:19S 30°28' E 030°47'911.4
2016-May-09 11:33S 30°20' E 030°53'1111.0
2016-May-09 10:33S 30°11' E 030°59'1110.6
2016-May-09 09:33S 30°02' E 031°06'1110.7
2016-May-09 08:33S 29°53' E 031°12'8 7.7
2016-May-09 07:33S 29°52' E 031°03'1 1.3
2016-May-09 06:32S 29°53' E 031°02'0 0.0
2016-May-09 05:29S 29°53' E 031°02'0 0.0
2016-May-09 04:32S 29°53' E 031°02'0 0.0
2016-May-09 03:32S 29°53' E 031°02'0 0.0
2016-May-09 02:29S 29°53' E 031°02'0 0.0
2016-May-09 00:32S 29°53' E 031°02'0 0.0
2016-May-08 23:32S 29°53' E 031°02'0 0.0
2016-May-08 22:32S 29°53' E 031°02'0 0.0
2016-May-08 21:29S 29°53' E 031°02'0 0.0
2016-May-08 20:32S 29°53' E 031°02'0 0.0
2016-May-08 19:32S 29°53' E 031°02'0 0.0
2016-May-08 18:32S 29°53' E 031°02'0 0.0
2016-May-08 17:32S 29°53' E 031°02'0 0.0
2016-May-08 16:32S 29°53' E 031°02'0 0.0
2016-May-08 15:29S 29°53' E 031°02'0 0.0
2016-May-08 14:32S 29°53' E 031°02'0 0.0
2016-May-08 13:33S 29°53' E 031°02'0 0.0
2016-May-08 12:33S 29°53' E 031°02'0 0.0
2016-May-08 11:33S 29°53' E 031°02'0 0.0
2016-May-08 10:33S 29°53' E 031°02'0 0.0
2016-May-08 09:33S 29°53' E 031°02'0 0.0
2016-May-08 08:33S 29°53' E 031°02'0 0.0
2016-May-08 07:33S 29°53' E 031°02'0 0.0
2016-May-08 06:33S 29°53' E 031°02'0 0.0
2016-May-08 05:33S 29°53' E 031°02'0 0.0
2016-May-08 04:33S 29°53' E 031°02'0 0.0
2016-May-08 03:33S 29°53' E 031°02'0 0.0
2016-May-08 02:33S 29°53' E 031°02'0 0.0
2016-May-08 00:33S 29°53' E 031°02'0 0.0
2016-May-07 23:33S 29°53' E 031°02'0 0.0
2016-May-07 22:33S 29°53' E 031°02'0 0.1
2016-May-07 21:33S 29°53' E 031°02'5 4.9
2016-May-07 20:33S 29°49' E 031°05'4 3.5
2016-May-07 19:33S 29°46' E 031°08'1 0.5
2016-May-07 18:28S 29°46' E 031°09'0 0.1
2016-May-07 17:31S 29°46' E 031°09'0 0.0
2016-May-07 16:31S 29°46' E 031°09'0 0.1
2016-May-07 15:31S 29°46' E 031°09'0 0.0
2016-May-07 14:28S 29°46' E 031°09'0 0.0
2016-May-07 13:28S 29°46' E 031°09'0 0.0
2016-May-07 12:31S 29°46' E 031°09'0 0.0
2016-May-07 11:28S 29°46' E 031°09'0 0.0
2016-May-07 10:28S 29°46' E 031°09'0 0.0
2016-May-07 09:28S 29°46' E 031°09'0 0.0
2016-May-07 08:28S 29°46' E 031°09'0 0.0
2016-May-07 07:28S 29°46' E 031°09'0 0.0
2016-May-07 06:31S 29°46' E 031°09'0 0.0
2016-May-07 05:31S 29°46' E 031°09'0 0.0
2016-May-07 04:31S 29°46' E 031°09'0 0.0
2016-May-07 03:31S 29°46' E 031°09'0 0.1
2016-May-07 02:31S 29°46' E 031°09'0 0.0
2016-May-07 00:31S 29°46' E 031°09'0 0.1
2016-May-06 23:31S 29°46' E 031°09'0 0.0
2016-May-06 22:31S 29°46' E 031°09'0 0.0
2016-May-06 21:28S 29°46' E 031°09'0 0.1
2016-May-06 20:28S 29°46' E 031°09'0 0.0
2016-May-06 19:31S 29°46' E 031°09'0 0.0
2016-May-06 18:31S 29°46' E 031°09'0 0.0
2016-May-06 17:31S 29°46' E 031°09'0 0.0
2016-May-06 16:28S 29°46' E 031°09'0 0.0
2016-May-06 15:28S 29°46' E 031°09'0 0.0
2016-May-06 14:28S 29°46' E 031°09'0 0.0
2016-May-06 13:28S 29°46' E 031°09'0 0.0
2016-May-06 12:28S 29°46' E 031°09'0 0.0
2016-May-06 11:28S 29°46' E 031°09'0 0.0
2016-May-06 10:28S 29°46' E 031°09'0 0.0
2016-May-06 09:22S 29°46' E 031°09'0 0.0
2016-May-06 08:28S 29°46' E 031°09'0 0.0
2016-May-06 07:28S 29°46' E 031°09'0 0.0
2016-May-06 06:31S 29°46' E 031°09'0 0.0
2016-May-06 05:31S 29°46' E 031°09'0 0.0
2016-May-06 04:31S 29°46' E 031°09'0 0.0
2016-May-06 03:31S 29°46' E 031°09'0 0.0
2016-May-06 02:28S 29°46' E 031°09'0 0.0
2016-May-06 00:28S 29°46' E 031°09'0 0.1
2016-May-05 23:28S 29°46' E 031°09'0 0.0
2016-May-05 22:28S 29°46' E 031°09'0 0.0
2016-May-05 21:31S 29°46' E 031°09'0 0.0
2016-May-05 20:31S 29°46' E 031°09'0 0.0
2016-May-05 19:31S 29°46' E 031°09'0 0.0
2016-May-05 18:31S 29°46' E 031°09'0 0.0
2016-May-05 17:31S 29°46' E 031°09'0 0.0
2016-May-05 16:31S 29°46' E 031°09'0 0.0
2016-May-05 15:31S 29°46' E 031°09'0 0.0
2016-May-05 14:28S 29°46' E 031°09'0 0.0
2016-May-05 13:28S 29°46' E 031°09'0 0.0
2016-May-05 12:28S 29°46' E 031°09'0 0.0
2016-May-05 11:31S 29°46' E 031°09'1 0.7
2016-May-05 10:33S 29°47' E 031°09'9 8.9
2016-May-05 09:33S 29°56' E 031°10'1110.9
2016-May-05 08:33S 30°05' E 031°03'1110.8
2016-May-05 07:33S 30°14' E 030°57'1010.4
2016-May-05 06:33S 30°23' E 030°51'1010.3
2016-May-05 05:33S 30°32' E 030°44'  

Dump ship's entire track history